Time;durP1;ratioP1;P1;durP2;ratioP2;P2;SDS_P1;SDS_P2;PMS_P1;PMS_P2;Temp;Humidity;BMP_temperature;BMP_pressure;BME280_temperature;BME280_humidity;BME280_pressure;Samples;Min_cycle;Max_cycle;Signal;HPM_P1;HPM_P2
2021/08/03 00:07:40;;;;;;;4.1;2.9;;;;;;;11.5;100;98493.08;;;;
2021/08/03 00:17:39;;;;;;;4.9;2.1;;;;;;;11.37;100;98493.22;;;;
2021/08/03 00:27:36;;;;;;;4;2.2;;;;;;;11.31;100;98492.59;;;;
2021/08/03 00:37:35;;;;;;;4.7;2.3;;;;;;;11.19;100;98499.67;;;;
2021/08/03 00:47:34;;;;;;;5.4;3.2;;;;;;;11.1;100;98502.36;;;;
2021/08/03 00:57:33;;;;;;;6.2;3.9;;;;;;;11.04;100;98499;;;;
2021/08/03 01:07:32;;;;;;;5.1;2.8;;;;;;;11;100;98502.65;;;;
2021/08/03 01:17:31;;;;;;;8.9;3.5;;;;;;;10.97;100;98493.26;;;;
2021/08/03 01:27:30;;;;;;;4.4;2.9;;;;;;;10.93;100;98486.89;;;;
2021/08/03 01:37:29;;;;;;;7.3;4;;;;;;;10.84;100;98491.47;;;;
2021/08/03 01:47:28;;;;;;;5.9;3.5;;;;;;;10.79;100;98482.73;;;;
2021/08/03 01:57:27;;;;;;;11.4;4;;;;;;;10.73;100;98487.45;;;;
2021/08/03 02:07:25;;;;;;;4.7;3.8;;;;;;;10.68;100;98502.97;;;;
2021/08/03 02:17:24;;;;;;;6.1;3.3;;;;;;;10.63;100;98495.01;;;;
2021/08/03 02:27:23;;;;;;;7.9;3.6;;;;;;;10.53;100;98499.57;;;;
2021/08/03 02:37:22;;;;;;;6.4;3.7;;;;;;;10.42;100;98509.01;;;;
2021/08/03 02:47:27;;;;;;;4.4;2.8;;;;;;;10.32;100;98509.27;;;;
2021/08/03 02:57:20;;;;;;;6.1;3.3;;;;;;;10.24;100;98507.3;;;;
2021/08/03 03:07:19;;;;;;;4.7;2.7;;;;;;;10.21;100;98512.5;;;;
2021/08/03 03:17:18;;;;;;;6.1;2.8;;;;;;;10.02;100;98518.86;;;;
2021/08/03 03:27:17;;;;;;;4.7;2.5;;;;;;;10.13;100;98542.85;;;;
2021/08/03 03:37:15;;;;;;;6.9;3.4;;;;;;;10.18;100;98535.47;;;;
2021/08/03 03:47:14;;;;;;;5.4;4.2;;;;;;;10.26;100;98547.41;;;;
2021/08/03 03:57:13;;;;;;;5.3;3.3;;;;;;;10.44;100;98549.13;;;;
2021/08/03 04:07:12;;;;;;;4.4;2.3;;;;;;;10.72;100;98569.44;;;;
2021/08/03 04:17:11;;;;;;;5.3;2.5;;;;;;;11.08;100;98569.28;;;;
2021/08/03 04:27:10;;;;;;;5.2;3.5;;;;;;;11.53;100;98578.02;;;;
2021/08/03 04:37:09;;;;;;;5.1;2.8;;;;;;;11.97;100;98567.03;;;;
2021/08/03 04:47:08;;;;;;;5.8;3.4;;;;;;;12.55;100;98576.55;;;;
2021/08/03 04:57:07;;;;;;;3.6;1.9;;;;;;;13.08;100;98568.76;;;;
2021/08/03 05:07:06;;;;;;;2.9;1.7;;;;;;;13.61;100;98573.65;;;;
2021/08/03 05:17:05;;;;;;;4.1;1.8;;;;;;;14.12;100;98582.58;;;;
2021/08/03 05:27:04;;;;;;;4.7;2;;;;;;;14.57;100;98588.92;;;;
2021/08/03 05:37:04;;;;;;;4.5;1.8;;;;;;;15.01;100;98581.92;;;;
2021/08/03 05:47:03;;;;;;;3.5;1.7;;;;;;;15.32;100;98592.27;;;;
2021/08/03 05:57:03;;;;;;;3.8;1.3;;;;;;;15.87;100;98597.16;;;;
2021/08/03 06:07:02;;;;;;;2.3;1;;;;;;;16.32;100;98588.78;;;;
2021/08/03 06:17:02;;;;;;;2.3;1.1;;;;;;;16.56;100;98599.61;;;;
2021/08/03 06:27:01;;;;;;;3.9;1.9;;;;;;;16.98;100;98597.27;;;;
2021/08/03 06:37:01;;;;;;;3.5;1.9;;;;;;;17.45;100;98610.94;;;;
2021/08/03 06:47:01;;;;;;;3;1.6;;;;;;;17.89;100;98608.09;;;;
2021/08/03 06:57:01;;;;;;;3.8;2.3;;;;;;;18.08;100;98614.38;;;;
2021/08/03 07:07:00;;;;;;;5.6;3.8;;;;;;;18.37;100;98613.06;;;;
2021/08/03 07:17:02;;;;;;;6.1;3;;;;;;;18.84;100;98612.89;;;;
2021/08/03 07:27:00;;;;;;;5;2;;;;;;;18.95;100;98607.63;;;;
2021/08/03 07:37:00;;;;;;;4.6;2;;;;;;;19.33;100;98604.02;;;;
2021/08/03 07:47:00;;;;;;;5.7;2.2;;;;;;;19.46;100;98608.17;;;;
2021/08/03 07:57:00;;;;;;;4.2;2;;;;;;;19.73;100;98619.92;;;;
2021/08/03 08:07:00;;;;;;;3.4;2.1;;;;;;;19.8;100;98614.57;;;;
2021/08/03 08:17:01;;;;;;;3.7;1.9;;;;;;;20.04;100;98616.89;;;;
2021/08/03 08:27:00;;;;;;;3.8;1.5;;;;;;;20.52;100;98618.75;;;;
2021/08/03 08:37:01;;;;;;;6.3;2.7;;;;;;;20.69;100;98619.36;;;;
2021/08/03 08:47:01;;;;;;;4.4;2.5;;;;;;;21.17;100;98617.56;;;;
2021/08/03 08:57:01;;;;;;;4.5;2.4;;;;;;;21.41;100;98609.58;;;;
2021/08/03 09:07:01;;;;;;;4.8;2.3;;;;;;;21.98;100;98605.34;;;;
2021/08/03 09:17:02;;;;;;;6.3;2.1;;;;;;;22.51;100;98597.39;;;;
2021/08/03 09:27:02;;;;;;;4.3;2.2;;;;;;;22.77;100;98581.83;;;;
2021/08/03 09:37:03;;;;;;;6;1.8;;;;;;;23.08;100;98577.58;;;;
2021/08/03 09:47:04;;;;;;;5.1;2;;;;;;;23.13;100;98577.17;;;;
2021/08/03 09:57:04;;;;;;;4;1.8;;;;;;;22.96;100;98568.52;;;;
2021/08/03 10:07:05;;;;;;;5.8;2.6;;;;;;;23.1;100;98558.72;;;;
2021/08/03 10:17:06;;;;;;;3.1;1.8;;;;;;;23.36;100;98567.38;;;;
2021/08/03 10:27:07;;;;;;;2.8;1.5;;;;;;;23.75;100;98575.65;;;;
2021/08/03 10:37:07;;;;;;;4.3;2;;;;;;;23.86;100;98562.66;;;;
2021/08/03 10:47:08;;;;;;;4.4;2.4;;;;;;;24.83;96.72461;98550.94;;;;
2021/08/03 10:57:20;;;;;;;4.8;2.4;;;;;;;24.41;97.17871;98545.61;;;;
2021/08/03 11:07:18;;;;;;;4;1.9;;;;;;;24.17;96.37305;98543.73;;;;
2021/08/03 11:17:10;;;;;;;4.8;2.3;;;;;;;24.34;94.9873;98527.14;;;;
2021/08/03 11:27:11;;;;;;;2.7;1.7;;;;;;;25.04;95.03125;98520.48;;;;
2021/08/03 11:37:12;;;;;;;4.7;2.6;;;;;;;24.86;93.33398;98505.23;;;;
2021/08/03 11:47:13;;;;;;;3.2;1.4;;;;;;;24.95;90.52246;98503.61;;;;
2021/08/03 11:57:14;;;;;;;3.4;1.8;;;;;;;25.04;92.14063;98503.14;;;;
2021/08/03 12:07:15;;;;;;;3.3;1.8;;;;;;;24.81;94.06641;98489.1;;;;
2021/08/03 12:17:16;;;;;;;5.2;1.8;;;;;;;24.68;93.78418;98463.97;;;;
2021/08/03 12:27:16;;;;;;;4.2;1.5;;;;;;;25.12;93.0293;98466.05;;;;
2021/08/03 12:37:17;;;;;;;5.7;2.4;;;;;;;25.05;91.25977;98477.14;;;;
2021/08/03 12:47:18;;;;;;;2.4;1.2;;;;;;;25.47;87.84473;98453.91;;;;
2021/08/03 12:57:23;;;;;;;2.9;1.5;;;;;;;26.32;76.97852;98448.22;;;;
2021/08/03 13:07:20;;;;;;;4.3;1.9;;;;;;;26.12;81.0791;98433.46;;;;
2021/08/03 13:17:22;;;;;;;4.1;1.6;;;;;;;25.88;77.38379;98443.63;;;;
2021/08/03 13:27:22;;;;;;;4.9;2;;;;;;;25.21;81.97656;98422.22;;;;
2021/08/03 13:37:23;;;;;;;3;1.4;;;;;;;26.11;77.04785;98395.98;;;;
2021/08/03 13:47:24;;;;;;;5.1;1.6;;;;;;;26.3;76.22559;98380.75;;;;
2021/08/03 13:57:25;;;;;;;5.9;1.2;;;;;;;26.13;77.27148;98379;;;;
2021/08/03 14:07:25;;;;;;;2.5;1;;;;;;;26.19;69.71094;98374.59;;;;
2021/08/03 14:17:26;;;;;;;2.7;1.3;;;;;;;26.12;71.25879;98358.88;;;;
2021/08/03 14:27:27;;;;;;;3.2;1.6;;;;;;;26.06;68.66211;98349.5;;;;
2021/08/03 14:37:28;;;;;;;3.2;1.6;;;;;;;26.35;68.77637;98344.34;;;;
2021/08/03 14:47:29;;;;;;;2.5;1.5;;;;;;;26.75;69.29492;98346.08;;;;
2021/08/03 14:57:30;;;;;;;4.1;1;;;;;;;26.78;67.26855;98333.39;;;;
2021/08/03 15:07:31;;;;;;;4.4;1.2;;;;;;;26.38;71.40527;98332.48;;;;
2021/08/03 15:17:31;;;;;;;4.3;1.7;;;;;;;27.96;60.62207;98345.37;;;;
2021/08/03 15:27:33;;;;;;;3.5;1.6;;;;;;;30.74;49.39355;98331.87;;;;
2021/08/03 15:37:34;;;;;;;5.3;1.6;;;;;;;32.07;43.56152;98333.89;;;;
2021/08/03 15:47:37;;;;;;;3;0.7;;;;;;;32.63;38.12598;98325.26;;;;
2021/08/03 15:57:38;;;;;;;2;0.9;;;;;;;33.82;35.38574;98332.45;;;;
2021/08/03 16:07:39;;;;;;;2.7;1.1;;;;;;;33.48;33.86816;98338.39;;;;
2021/08/03 16:17:41;;;;;;;2.1;1.1;;;;;;;29.7;42.25195;98335.48;;;;
2021/08/03 16:27:43;;;;;;;3.1;1.1;;;;;;;28.32;46.53613;98319.66;;;;
2021/08/03 16:37:44;;;;;;;6.4;3;;;;;;;27.06;52.77148;98315.53;;;;
2021/08/03 16:47:45;;;;;;;9;5.6;;;;;;;26.64;54.50195;98297.69;;;;
2021/08/03 16:57:46;;;;;;;36.2;22.2;;;;;;;25.49;56.97168;98288.69;;;;
2021/08/03 17:07:47;;;;;;;10.7;3.3;;;;;;;24.85;78.41797;98297.67;;;;
2021/08/03 17:17:48;;;;;;;5.2;2.4;;;;;;;24.49;73.47559;98296.42;;;;
2021/08/03 17:27:49;;;;;;;6.8;3;;;;;;;23.79;77.82715;98292.16;;;;
2021/08/03 17:37:49;;;;;;;5.6;2.4;;;;;;;22.92;81.71289;98308.56;;;;
2021/08/03 17:47:50;;;;;;;3.7;1.7;;;;;;;21.81;90.25098;98297.89;;;;
2021/08/03 17:57:50;;;;;;;4.1;1.7;;;;;;;21.18;90.75684;98298.44;;;;
2021/08/03 18:07:50;;;;;;;2.4;1.1;;;;;;;20.66;95.36328;98318.83;;;;
2021/08/03 18:17:51;;;;;;;7.9;2;;;;;;;20.2;97.4541;98321.17;;;;
2021/08/03 18:27:51;;;;;;;3.7;1.8;;;;;;;19.73;100;98328.11;;;;
2021/08/03 18:37:51;;;;;;;22.5;3.1;;;;;;;19.06;100;98363.53;;;;
2021/08/03 18:47:51;;;;;;;6;2.8;;;;;;;18.24;100;98355.17;;;;
2021/08/03 18:57:50;;;;;;;5.7;2.6;;;;;;;17.91;100;98363.91;;;;
2021/08/03 19:07:50;;;;;;;3.7;1.6;;;;;;;17.74;100;98382.64;;;;
2021/08/03 19:17:50;;;;;;;7.1;2.8;;;;;;;17.34;100;98386.48;;;;
2021/08/03 19:27:50;;;;;;;3.9;2;;;;;;;17.29;100;98380.5;;;;
2021/08/03 19:37:50;;;;;;;6.4;3;;;;;;;17.35;100;98387.27;;;;
2021/08/03 19:47:49;;;;;;;11.4;7.5;;;;;;;17.19;100;98400.92;;;;
2021/08/03 19:57:49;;;;;;;6.9;2.9;;;;;;;16.81;100;98404.32;;;;
2021/08/03 20:07:48;;;;;;;3.4;2.1;;;;;;;16.79;100;98403.1;;;;
2021/08/03 20:17:48;;;;;;;4.9;2.1;;;;;;;16.88;100;98423.55;;;;
2021/08/03 20:27:48;;;;;;;4.2;2.1;;;;;;;17;100;98433.56;;;;
2021/08/03 20:37:55;;;;;;;4.3;2.3;;;;;;;16.88;100;98390.88;;;;
2021/08/03 20:47:47;;;;;;;4.3;1.5;;;;;;;16.76;100;98399.16;;;;
2021/08/03 20:57:46;;;;;;;4.2;1.6;;;;;;;16.62;100;98415.14;;;;
2021/08/03 21:07:47;;;;;;;3.3;1.5;;;;;;;16.54;100;98425.02;;;;
2021/08/03 21:17:45;;;;;;;3.3;1.9;;;;;;;16.5;100;98417.89;;;;
2021/08/03 21:27:45;;;;;;;3.6;1.9;;;;;;;16.45;100;98418.94;;;;
2021/08/03 21:37:44;;;;;;;3.6;2.4;;;;;;;16.3;100;98414.28;;;;
2021/08/03 21:47:44;;;;;;;4;1.8;;;;;;;16.16;100;98394.88;;;;
2021/08/03 21:57:43;;;;;;;5.6;1.5;;;;;;;16.07;100;98402.38;;;;
2021/08/03 22:07:43;;;;;;;3.9;1.6;;;;;;;15.92;100;98414.02;;;;
2021/08/03 22:17:43;;;;;;;3.2;1.7;;;;;;;15.59;100;98377.01;;;;
2021/08/03 22:27:42;;;;;;;3.3;2;;;;;;;15.57;100;98375.78;;;;
2021/08/03 22:37:41;;;;;;;2.2;1.3;;;;;;;15.45;100;98362.2;;;;
2021/08/03 22:47:41;;;;;;;3.8;1.9;;;;;;;15.3;100;98352.88;;;;
2021/08/03 22:57:40;;;;;;;3.6;1.4;;;;;;;15.05;100;98343.19;;;;
2021/08/03 23:07:40;;;;;;;3.3;1.7;;;;;;;14.92;100;98345.14;;;;
2021/08/03 23:17:39;;;;;;;4.7;1.7;;;;;;;14.81;100;98356.8;;;;
2021/08/03 23:27:39;;;;;;;4.4;2.4;;;;;;;14.74;100;98349.23;;;;
2021/08/03 23:37:38;;;;;;;5.1;2.2;;;;;;;14.74;100;98353.86;;;;
2021/08/03 23:47:37;;;;;;;3.8;1.9;;;;;;;14.77;100;98359.39;;;;
2021/08/03 23:57:37;;;;;;;5.7;2.2;;;;;;;14.93;100;98360.27;;;;
